Time;durP1;ratioP1;P1;durP2;ratioP2;P2;SDS_P1;SDS_P2;PMS_P1;PMS_P2;Temp;Humidity;BMP_temperature;BMP_pressure;BME280_temperature;BME280_humidity;BME280_pressure;Samples;Min_cycle;Max_cycle;Signal;HPM_P1;HPM_P2
2022/08/13 00:01:56;;;;;;;2.43;2.27;;;21.10;93.70;;;;;;4992297;28;20798;-66
2022/08/13 00:04:24;;;;;;;1.93;1.80;;;21.20;93.70;;;;;;4992241;28;20418;-66
2022/08/13 00:09:27;;;;;;;4.33;2.70;;;21.10;94.00;;;;;;4992321;28;20400;-66
2022/08/13 00:14:37;;;;;;;2.67;2.30;;;21.00;94.40;;;;;;4992133;28;20180;-65
2022/08/13 00:17:08;;;;;;;2.40;2.17;;;21.00;94.50;;;;;;4992037;28;20453;-66
2022/08/13 00:19:39;;;;;;;3.47;3.17;;;21.00;94.70;;;;;;4992134;28;20171;-66
2022/08/13 00:22:04;;;;;;;2.07;1.97;;;21.00;94.80;;;;;;4992098;28;20445;-66
2022/08/13 00:24:30;;;;;;;2.50;2.30;;;21.00;94.90;;;;;;4991965;28;20414;-65
2022/08/13 00:26:59;;;;;;;4.13;2.20;;;21.00;95.10;;;;;;4991958;28;20675;-66
2022/08/13 00:29:25;;;;;;;3.20;2.20;;;21.00;95.20;;;;;;4992029;28;20189;-66
2022/08/13 00:31:51;;;;;;;3.37;3.07;;;21.00;95.30;;;;;;4992038;28;20408;-66
2022/08/13 00:34:18;;;;;;;3.83;2.23;;;21.00;95.40;;;;;;4992002;28;20421;-66
2022/08/13 00:36:44;;;;;;;2.63;2.43;;;20.90;95.50;;;;;;4992136;28;20190;-66
2022/08/13 00:39:10;;;;;;;2.20;1.90;;;20.90;95.70;;;;;;4992339;28;20402;-66
2022/08/13 00:41:37;;;;;;;2.57;2.37;;;20.90;96.00;;;;;;4992230;28;20439;-66
2022/08/13 00:44:06;;;;;;;2.53;2.33;;;20.90;96.10;;;;;;4991980;28;20419;-66
2022/08/13 00:46:32;;;;;;;4.73;1.97;;;20.90;96.20;;;;;;4994897;28;20410;-66
2022/08/13 00:48:58;;;;;;;4.90;2.60;;;20.80;96.20;;;;;;4996008;28;20403;-66
2022/08/13 00:51:25;;;;;;;6.43;2.23;;;20.80;96.40;;;;;;4995611;28;20433;-65
2022/08/13 00:53:51;;;;;;;3.87;2.83;;;20.80;96.60;;;;;;4995586;28;20302;-65
2022/08/13 00:56:17;;;;;;;3.60;2.20;;;20.80;96.70;;;;;;4995266;28;20836;-65
2022/08/13 00:58:43;;;;;;;10.33;2.60;;;20.70;96.80;;;;;;4995523;28;20639;-65
2022/08/13 01:01:11;;;;;;;2.50;2.30;;;20.70;97.00;;;;;;4995794;28;20176;-66
2022/08/13 01:03:38;;;;;;;2.70;2.10;;;20.70;97.20;;;;;;4995930;28;20467;-65
2022/08/13 01:06:05;;;;;;;2.90;2.60;;;20.70;97.40;;;;;;4995191;28;20478;-65
2022/08/13 01:08:34;;;;;;;10.00;2.20;;;20.70;97.50;;;;;;4995086;28;20423;-67
2022/08/13 01:11:03;;;;;;;3.23;2.67;;;20.60;98.10;;;;;;4995454;28;20402;-66
2022/08/13 01:13:33;;;;;;;7.13;2.23;;;20.60;97.90;;;;;;4995086;28;20400;-66
2022/08/13 01:15:59;;;;;;;2.40;2.20;;;20.60;98.00;;;;;;4995349;28;20413;-66
2022/08/13 01:18:25;;;;;;;4.30;2.63;;;20.60;98.00;;;;;;4995187;28;20544;-66
2022/08/13 01:21:02;;;;;;;2.13;2.03;;;20.60;98.30;;;;;;4995377;28;20190;-66
2022/08/13 01:23:28;;;;;;;3.23;2.20;;;20.50;98.40;;;;;;4995385;28;21115;-66
2022/08/13 01:25:55;;;;;;;2.20;2.00;;;20.50;98.50;;;;;;4994631;28;20415;-66
2022/08/13 01:28:27;;;;;;;7.00;3.20;;;20.50;98.70;;;;;;4992312;28;20420;-66
2022/08/13 01:30:54;;;;;;;2.40;2.20;;;20.50;98.90;;;;;;4995028;28;20414;-66
2022/08/13 01:33:21;;;;;;;2.37;2.07;;;20.40;99.00;;;;;;4995103;28;20424;-66
2022/08/13 01:35:48;;;;;;;2.47;2.27;;;20.40;99.10;;;;;;4994337;28;20415;-66
2022/08/13 01:38:14;;;;;;;2.97;2.37;;;20.40;99.40;;;;;;4994729;28;20435;-66
2022/08/13 01:40:41;;;;;;;2.93;2.03;;;20.40;99.60;;;;;;4994660;28;20416;-66
2022/08/13 01:43:07;;;;;;;3.70;2.20;;;20.30;99.70;;;;;;4994691;28;20454;-66
2022/08/13 01:45:34;;;;;;;3.67;2.50;;;20.30;99.90;;;;;;4994320;28;21000;-66
2022/08/13 01:50:46;;;;;;;2.93;2.23;;;20.30;99.90;;;;;;4994778;28;20432;-66
2022/08/13 01:53:16;;;;;;;4.30;2.30;;;20.20;99.90;;;;;;4994626;28;20408;-66
2022/08/13 01:55:48;;;;;;;2.83;2.50;;;20.20;99.90;;;;;;4994224;28;20485;-66
2022/08/13 01:58:22;;;;;;;2.83;2.27;;;20.20;99.90;;;;;;4994586;28;20433;-66
2022/08/13 02:00:50;;;;;;;2.27;2.07;;;20.20;99.90;;;;;;4994387;28;20449;-65
2022/08/13 02:03:19;;;;;;;3.83;2.87;;;20.20;99.90;;;;;;4994249;28;20490;-65
2022/08/13 02:05:47;;;;;;;2.70;2.50;;;20.20;99.90;;;;;;4993739;28;20440;-66
2022/08/13 02:08:18;;;;;;;2.23;2.00;;;20.10;99.90;;;;;;4994246;28;20491;-66
2022/08/13 02:10:44;;;;;;;2.73;2.53;;;20.10;99.90;;;;;;4994104;28;20432;-65
2022/08/13 02:13:18;;;;;;;2.47;2.27;;;20.10;99.90;;;;;;4994145;28;20505;-66
2022/08/13 02:15:46;;;;;;;4.13;2.50;;;20.10;99.90;;;;;;4993888;28;20488;-66
2022/08/13 02:18:17;;;;;;;2.70;2.50;;;20.10;99.90;;;;;;4993919;28;20453;-65
2022/08/13 02:20:45;;;;;;;2.50;2.30;;;20.10;99.90;;;;;;4993737;28;20427;-65
2022/08/13 02:23:14;;;;;;;2.73;2.50;;;20.10;99.90;;;;;;4993810;28;20449;-65
2022/08/13 02:25:41;;;;;;;2.57;2.07;;;20.10;99.90;;;;;;4993409;28;20402;-65
2022/08/13 02:28:07;;;;;;;2.90;2.03;;;20.10;99.90;;;;;;4993791;28;20418;-66
2022/08/13 02:30:32;;;;;;;2.57;2.10;;;20.10;99.90;;;;;;4993904;28;20806;-65
2022/08/13 02:32:59;;;;;;;4.57;2.63;;;20.00;99.90;;;;;;4993802;28;20171;-66
2022/08/13 02:35:27;;;;;;;3.53;2.37;;;20.00;99.90;;;;;;4993333;28;20200;-65
2022/08/13 02:37:52;;;;;;;3.43;3.07;;;20.00;99.90;;;;;;4993459;28;20967;-65
2022/08/13 02:43:02;;;;;;;3.07;2.77;;;20.10;99.90;;;;;;4993520;28;20582;-66
2022/08/13 02:45:28;;;;;;;5.33;2.67;;;20.00;99.90;;;;;;4993478;28;20414;-66
2022/08/13 02:47:54;;;;;;;9.57;3.63;;;20.00;99.90;;;;;;4993571;28;20545;-67
2022/08/13 02:50:21;;;;;;;3.47;3.00;;;20.00;99.90;;;;;;4993376;28;20511;-66
2022/08/13 02:52:51;;;;;;;2.83;2.50;;;20.00;99.90;;;;;;4993194;28;20471;-67
2022/08/13 02:55:22;;;;;;;8.70;2.63;;;19.90;99.90;;;;;;4992801;28;20491;-67
2022/08/13 02:57:48;;;;;;;3.23;2.93;;;19.90;99.90;;;;;;4993446;28;20781;-67
2022/08/13 03:00:16;;;;;;;4.40;2.67;;;19.90;99.90;;;;;;4993552;28;20914;-65
2022/08/13 03:02:44;;;;;;;4.33;2.70;;;19.90;99.90;;;;;;4993374;28;20468;-65
2022/08/13 03:05:14;;;;;;;2.90;2.63;;;19.80;99.90;;;;;;4992514;28;20418;-66
2022/08/13 03:07:48;;;;;;;3.00;2.70;;;19.80;99.90;;;;;;4993047;28;20470;-66
2022/08/13 03:10:16;;;;;;;3.13;2.53;;;19.80;99.90;;;;;;4993213;28;20408;-65
2022/08/13 03:12:53;;;;;;;2.93;2.67;;;19.80;99.90;;;;;;4993033;28;20450;-65
2022/08/13 03:15:21;;;;;;;3.57;3.27;;;19.80;99.90;;;;;;4992793;28;20413;-66
2022/08/13 03:17:46;;;;;;;2.83;2.37;;;19.80;99.90;;;;;;4992794;28;20908;-66
2022/08/13 03:20:16;;;;;;;2.80;2.60;;;19.70;99.90;;;;;;4992823;28;20449;-66
2022/08/13 03:22:55;;;;;;;2.80;2.60;;;19.70;99.90;;;;;;4992958;28;20210;-66
2022/08/13 03:25:22;;;;;;;2.67;2.47;;;19.80;99.90;;;;;;4992789;28;20418;-66
2022/08/13 03:27:49;;;;;;;3.13;2.70;;;19.70;99.90;;;;;;4992924;28;20458;-66
2022/08/13 03:30:17;;;;;;;4.20;2.80;;;19.70;99.90;;;;;;4992732;28;20418;-66
2022/08/13 03:32:45;;;;;;;3.73;3.17;;;19.70;99.90;;;;;;4992795;28;20420;-65
2022/08/13 03:35:14;;;;;;;3.70;2.73;;;19.70;99.90;;;;;;4992518;28;20807;-66
2022/08/13 03:37:41;;;;;;;4.40;2.60;;;19.80;99.90;;;;;;4992556;28;20421;-65
2022/08/13 03:40:08;;;;;;;2.70;2.50;;;19.80;99.90;;;;;;4992717;28;20418;-66
2022/08/13 03:42:35;;;;;;;3.20;2.90;;;19.80;99.90;;;;;;4992331;28;20449;-65
2022/08/13 03:45:02;;;;;;;5.93;2.60;;;19.80;99.90;;;;;;4991932;28;20420;-66
2022/08/13 03:47:28;;;;;;;5.53;2.90;;;19.80;99.90;;;;;;4991514;28;20433;-65
2022/08/13 03:49:53;;;;;;;3.83;3.37;;;19.80;99.90;;;;;;4991494;28;20409;-66
2022/08/13 03:52:20;;;;;;;4.30;2.60;;;19.80;99.90;;;;;;4991598;28;20188;-66
2022/08/13 03:54:45;;;;;;;3.17;2.90;;;19.80;99.90;;;;;;4991187;28;20174;-66
2022/08/13 03:57:12;;;;;;;3.27;2.90;;;19.80;99.90;;;;;;4991335;28;20431;-66
2022/08/13 03:59:38;;;;;;;2.73;2.50;;;19.80;99.90;;;;;;4991414;28;20176;-66
2022/08/13 04:02:03;;;;;;;3.37;3.07;;;19.80;99.90;;;;;;4991283;28;20816;-66
2022/08/13 04:04:29;;;;;;;4.17;2.40;;;19.80;99.90;;;;;;4991533;28;20525;-66
2022/08/13 04:06:54;;;;;;;3.20;2.90;;;19.70;99.90;;;;;;4991439;28;20295;-66
2022/08/13 04:09:20;;;;;;;5.63;2.70;;;19.80;99.90;;;;;;4991550;28;20181;-66
2022/08/13 04:11:48;;;;;;;3.13;2.67;;;19.80;99.90;;;;;;4991591;28;20221;-67
2022/08/13 04:14:14;;;;;;;4.47;3.50;;;19.80;99.90;;;;;;4991158;28;20185;-66
2022/08/13 04:16:40;;;;;;;5.03;2.90;;;19.80;99.90;;;;;;4990804;28;20520;-67
2022/08/13 04:19:07;;;;;;;3.20;2.90;;;19.80;99.90;;;;;;4990792;28;20534;-66
2022/08/13 04:21:37;;;;;;;3.87;3.57;;;19.70;99.90;;;;;;4994280;28;20243;-66
2022/08/13 04:24:04;;;;;;;3.50;3.20;;;19.70;99.90;;;;;;4994959;28;20504;-66
2022/08/13 04:26:31;;;;;;;3.83;3.10;;;19.70;99.90;;;;;;4993235;28;20406;-66
2022/08/13 04:28:57;;;;;;;2.57;2.37;;;19.70;99.90;;;;;;4995293;28;20420;-66
2022/08/13 04:31:23;;;;;;;4.30;3.90;;;19.70;99.90;;;;;;4994768;28;20815;-66
2022/08/13 04:33:50;;;;;;;3.80;2.90;;;19.70;99.90;;;;;;4994553;28;20485;-65
2022/08/13 04:36:16;;;;;;;3.37;3.07;;;19.70;99.90;;;;;;4994091;28;20455;-65
2022/08/13 04:38:42;;;;;;;3.30;2.63;;;19.70;99.90;;;;;;4994535;28;20467;-65
2022/08/13 04:41:08;;;;;;;2.90;2.70;;;19.70;99.90;;;;;;4994584;28;20871;-66
2022/08/13 04:43:33;;;;;;;5.17;4.77;;;19.70;99.90;;;;;;4994437;28;20460;-66
2022/08/13 04:46:00;;;;;;;4.23;2.87;;;19.70;99.90;;;;;;4994070;28;20178;-68
2022/08/13 04:48:33;;;;;;;3.83;2.90;;;19.70;99.90;;;;;;4994143;28;20566;-65
2022/08/13 04:51:00;;;;;;;3.37;2.93;;;19.80;99.90;;;;;;4994228;28;20410;-66
2022/08/13 04:53:37;;;;;;;4.60;3.60;;;19.80;99.90;;;;;;4994378;28;20419;-68
2022/08/13 04:56:03;;;;;;;9.77;4.50;;;19.80;99.90;;;;;;4994040;28;21008;-66
2022/08/13 04:58:34;;;;;;;4.50;3.20;;;19.90;99.90;;;;;;4994498;28;20877;-66
2022/08/13 05:01:01;;;;;;;3.57;2.87;;;19.90;99.90;;;;;;4994413;28;20411;-66
2022/08/13 05:03:29;;;;;;;3.07;2.87;;;20.00;99.90;;;;;;4994165;28;20458;-66
2022/08/13 05:05:54;;;;;;;9.03;4.20;;;20.10;99.90;;;;;;4993547;28;20805;-66
2022/08/13 05:08:20;;;;;;;6.40;5.77;;;20.20;99.90;;;;;;4994067;28;20487;-66
2022/08/13 05:10:48;;;;;;;7.33;4.60;;;20.30;99.90;;;;;;4994204;28;20177;-66
2022/08/13 05:13:27;;;;;;;3.40;3.10;;;20.30;99.90;;;;;;4994064;28;20678;-66
2022/08/13 05:15:56;;;;;;;3.80;3.40;;;20.40;99.90;;;;;;4993813;28;20548;-66
2022/08/13 05:18:22;;;;;;;3.67;3.37;;;20.50;99.90;;;;;;5024972;22;20868;-71
2022/08/13 05:20:49;;;;;;;3.77;3.33;;;20.60;99.90;;;;;;5033117;28;20418;-70
2022/08/13 05:23:14;;;;;;;3.87;3.47;;;20.60;99.90;;;;;;5034361;28;20455;-70
2022/08/13 05:25:43;;;;;;;3.83;3.20;;;20.70;99.90;;;;;;5033111;28;20894;-71
2022/08/13 05:28:09;;;;;;;3.77;3.40;;;20.70;99.90;;;;;;5033520;28;20184;-70
2022/08/13 05:30:39;;;;;;;3.40;3.10;;;20.70;99.90;;;;;;5033025;28;20769;-70
2022/08/13 05:33:13;;;;;;;3.10;2.90;;;20.80;99.90;;;;;;5033239;28;20409;-71
2022/08/13 05:35:42;;;;;;;4.67;3.40;;;20.80;99.90;;;;;;5033064;28;20405;-70
2022/08/13 05:38:08;;;;;;;3.57;3.00;;;20.80;99.90;;;;;;5033261;28;20435;-70
2022/08/13 05:40:35;;;;;;;4.03;3.73;;;21.00;99.90;;;;;;5033352;28;20409;-70
2022/08/13 05:43:02;;;;;;;3.20;2.97;;;21.10;99.90;;;;;;5033218;28;20449;-71
2022/08/13 05:45:28;;;;;;;3.43;3.23;;;21.30;99.90;;;;;;5032760;28;20492;-70
2022/08/13 05:47:53;;;;;;;3.57;3.10;;;21.70;99.90;;;;;;5033107;28;20434;-71
2022/08/13 05:50:19;;;;;;;4.20;2.80;;;21.90;99.90;;;;;;5033095;28;20175;-69
2022/08/13 05:52:44;;;;;;;2.83;2.53;;;22.10;99.90;;;;;;5033189;28;20168;-70
2022/08/13 05:55:12;;;;;;;3.70;3.07;;;22.30;99.90;;;;;;5032929;28;20170;-70
2022/08/13 05:57:40;;;;;;;5.33;2.87;;;22.60;99.90;;;;;;5033039;28;20277;-70
2022/08/13 06:05:38;;;;;;;3.73;3.40;;;22.60;99.90;;;;;;5032639;28;20455;-71
2022/08/13 06:08:06;;;;;;;3.60;3.30;;;22.70;99.90;;;;;;5032831;28;20449;-71
2022/08/13 06:10:32;;;;;;;3.17;2.83;;;22.90;99.90;;;;;;5032795;28;20464;-71
2022/08/13 06:12:59;;;;;;;4.50;4.10;;;22.70;99.90;;;;;;5032774;28;20417;-71
2022/08/13 06:15:25;;;;;;;3.90;3.20;;;22.90;99.90;;;;;;5032326;28;20904;-71
2022/08/13 06:17:52;;;;;;;3.17;2.60;;;22.70;99.90;;;;;;5032559;28;20456;-71
2022/08/13 06:20:22;;;;;;;3.30;3.03;;;22.70;99.90;;;;;;5032768;28;20413;-70
2022/08/13 06:22:52;;;;;;;7.30;3.40;;;22.70;99.90;;;;;;5032580;28;20456;-71
2022/08/13 06:25:19;;;;;;;3.77;3.47;;;22.90;99.90;;;;;;5032494;28;20770;-72
2022/08/13 06:27:44;;;;;;;4.30;3.90;;;22.80;99.90;;;;;;5034162;28;20422;-71
2022/08/13 06:30:12;;;;;;;3.63;3.30;;;22.80;99.90;;;;;;5033825;28;20408;-71
2022/08/13 06:32:37;;;;;;;4.20;3.40;;;22.90;99.90;;;;;;5032195;28;20173;-71
2022/08/13 06:35:07;;;;;;;3.80;3.10;;;23.00;99.90;;;;;;5032093;28;20513;-71
2022/08/13 06:37:33;;;;;;;3.43;3.10;;;22.80;99.90;;;;;;5032026;28;20201;-70
2022/08/13 06:39:59;;;;;;;3.47;3.27;;;22.90;99.90;;;;;;5032691;28;20789;-70
2022/08/13 06:42:27;;;;;;;3.90;3.23;;;22.90;99.90;;;;;;5032267;28;20457;-71
2022/08/13 06:44:54;;;;;;;3.40;3.20;;;23.00;99.90;;;;;;5032796;28;20402;-71
2022/08/13 06:47:23;;;;;;;3.33;2.77;;;23.30;99.90;;;;;;5031893;28;20488;-72
2022/08/13 06:49:49;;;;;;;4.10;3.70;;;23.70;99.90;;;;;;5032855;28;20406;-71
2022/08/13 06:52:15;;;;;;;4.20;3.37;;;23.90;99.90;;;;;;5035220;28;20990;-70
2022/08/13 06:54:40;;;;;;;3.80;3.10;;;24.20;99.90;;;;;;5031947;28;20561;-70
2022/08/13 06:57:08;;;;;;;3.83;3.43;;;24.30;99.90;;;;;;5031710;28;20178;-71
2022/08/13 06:59:39;;;;;;;5.17;3.07;;;24.00;99.90;;;;;;5031691;28;20247;-70
2022/08/13 07:02:07;;;;;;;3.50;3.20;;;23.90;99.90;;;;;;5031799;28;20446;-70
2022/08/13 07:04:33;;;;;;;3.43;2.87;;;24.00;99.90;;;;;;5031880;28;20458;-71
2022/08/13 07:06:59;;;;;;;3.43;3.10;;;24.50;99.90;;;;;;5031681;28;21023;-71
2022/08/13 07:09:25;;;;;;;4.07;3.77;;;24.50;99.90;;;;;;5031458;28;20182;-70
2022/08/13 07:11:51;;;;;;;3.47;3.20;;;24.70;99.90;;;;;;5031606;28;20912;-71
2022/08/13 07:14:16;;;;;;;3.87;3.43;;;24.80;99.90;;;;;;5031487;28;20419;-71
2022/08/13 07:16:44;;;;;;;3.70;3.40;;;24.80;99.90;;;;;;5031497;28;20179;-70
2022/08/13 07:19:11;;;;;;;3.50;3.20;;;25.20;99.70;;;;;;5031354;28;20199;-71
2022/08/13 07:21:39;;;;;;;4.03;3.40;;;24.80;99.90;;;;;;5031256;28;20414;-71
2022/08/13 07:24:07;;;;;;;4.27;3.13;;;24.80;99.90;;;;;;5031744;28;20411;-74
2022/08/13 07:26:36;;;;;;;3.57;3.33;;;24.70;99.90;;;;;;5031370;28;20817;-71
2022/08/13 07:29:04;;;;;;;4.53;3.20;;;24.80;99.90;;;;;;5031246;28;20427;-71
2022/08/13 07:31:33;;;;;;;4.27;3.00;;;25.10;99.70;;;;;;5031290;28;20411;-71
2022/08/13 07:34:04;;;;;;;3.43;3.13;;;25.30;99.40;;;;;;5031568;28;20405;-71
2022/08/13 07:36:33;;;;;;;3.47;3.17;;;25.70;98.90;;;;;;5031381;28;20426;-71
2022/08/13 07:39:03;;;;;;;3.17;2.87;;;26.20;97.90;;;;;;5031686;28;21049;-71
2022/08/13 07:41:29;;;;;;;3.77;2.77;;;26.00;97.70;;;;;;5033351;28;20413;-72
2022/08/13 07:43:55;;;;;;;3.20;2.90;;;26.50;97.00;;;;;;5032110;28;20481;-71
2022/08/13 07:46:20;;;;;;;3.00;2.60;;;26.60;96.60;;;;;;5030604;28;20435;-73
2022/08/13 07:48:52;;;;;;;4.30;3.57;;;26.20;97.20;;;;;;5031059;28;20250;-71
2022/08/13 07:51:20;;;;;;;3.57;3.27;;;25.90;97.50;;;;;;5031052;28;20658;-71
2022/08/13 07:53:51;;;;;;;3.50;3.20;;;25.70;98.10;;;;;;5031132;28;20405;-72
2022/08/13 07:56:38;;;;;;;5.50;3.17;;;25.80;98.00;;;;;;5033835;28;20445;-71
2022/08/13 07:59:15;;;;;;;3.63;3.33;;;25.70;98.60;;;;;;5027973;28;20517;-71
2022/08/13 08:01:47;;;;;;;3.80;3.17;;;25.50;99.00;;;;;;5037196;28;20429;-71
2022/08/13 08:04:15;;;;;;;3.60;3.30;;;25.10;99.80;;;;;;5030975;28;20441;-72
2022/08/13 08:06:47;;;;;;;3.50;3.20;;;25.00;99.90;;;;;;5030734;28;20729;-70
2022/08/13 08:09:21;;;;;;;3.97;3.60;;;25.20;99.90;;;;;;5030756;28;20432;-70
2022/08/13 08:14:31;;;;;;;4.07;3.43;;;25.70;99.00;;;;;;5030578;28;20484;-70
2022/08/13 08:16:59;;;;;;;3.23;2.93;;;25.90;98.90;;;;;;5030551;28;20570;-70
2022/08/13 08:19:25;;;;;;;4.23;3.50;;;25.70;98.70;;;;;;5030712;28;20198;-70
2022/08/13 08:21:56;;;;;;;5.00;2.53;;;25.50;99.30;;;;;;5030439;28;20445;-71
2022/08/13 08:24:22;;;;;;;3.23;2.93;;;25.60;99.30;;;;;;5030751;28;20402;-71
2022/08/13 08:26:49;;;;;;;3.50;3.20;;;25.80;99.10;;;;;;5030080;28;20420;-70
2022/08/13 08:29:16;;;;;;;4.13;3.70;;;25.80;98.80;;;;;;5030215;28;20839;-70
2022/08/13 08:31:43;;;;;;;3.50;3.20;;;25.90;98.60;;;;;;5030648;28;20398;-70
2022/08/13 08:34:09;;;;;;;3.83;3.53;;;26.00;98.10;;;;;;5030270;28;20486;-70
2022/08/13 08:36:40;;;;;;;2.77;2.57;;;26.10;97.60;;;;;;5030044;28;20403;-71
2022/08/13 08:44:38;;;;;;;3.80;3.17;;;26.50;96.60;;;;;;5030067;28;20452;-71
2022/08/13 08:47:05;;;;;;;4.13;3.80;;;26.70;96.30;;;;;;5030067;28;20472;-71
2022/08/13 08:49:30;;;;;;;3.60;3.30;;;26.80;96.20;;;;;;5030138;28;20437;-71
2022/08/13 08:51:58;;;;;;;3.67;3.30;;;26.70;96.30;;;;;;5030238;28;20405;-71
2022/08/13 08:54:25;;;;;;;4.70;4.30;;;26.90;96.40;;;;;;5030087;28;20192;-71
2022/08/13 08:56:56;;;;;;;4.03;3.63;;;27.10;96.30;;;;;;5032964;28;20437;-71
2022/08/13 08:59:24;;;;;;;4.53;4.13;;;26.90;96.60;;;;;;5030028;28;20430;-71
2022/08/13 09:01:55;;;;;;;6.40;4.77;;;26.90;96.90;;;;;;5030110;28;20413;-71
2022/08/13 09:04:25;;;;;;;4.00;3.70;;;27.00;96.70;;;;;;5029814;28;20413;-71
2022/08/13 09:06:57;;;;;;;4.33;3.27;;;27.20;96.50;;;;;;5024544;28;20421;-72
2022/08/13 09:09:24;;;;;;;4.27;3.87;;;27.20;96.40;;;;;;5034684;28;20435;-72
2022/08/13 09:11:55;;;;;;;5.03;4.00;;;27.50;95.90;;;;;;5033434;28;20406;-72
2022/08/13 09:14:26;;;;;;;3.97;3.70;;;27.70;95.70;;;;;;5033700;28;20472;-72
2022/08/13 09:16:53;;;;;;;4.20;3.90;;;28.00;95.50;;;;;;5033503;28;20750;-72
2022/08/13 09:19:19;;;;;;;4.60;4.20;;;28.10;94.80;;;;;;5033363;28;20483;-72
2022/08/13 09:21:46;;;;;;;4.23;3.93;;;28.10;95.00;;;;;;5033140;28;20418;-72
2022/08/13 09:24:15;;;;;;;4.10;3.80;;;28.30;94.70;;;;;;5033406;28;20579;-72
2022/08/13 09:26:47;;;;;;;4.50;4.10;;;28.20;94.80;;;;;;5032935;28;20836;-72
2022/08/13 09:29:14;;;;;;;6.23;4.53;;;27.80;95.00;;;;;;5033647;28;20419;-72
2022/08/13 09:31:43;;;;;;;3.83;3.53;;;28.10;95.20;;;;;;5022127;28;20411;-72
2022/08/13 09:34:08;;;;;;;4.37;4.07;;;28.30;94.80;;;;;;5033464;28;20409;-72
2022/08/13 09:36:36;;;;;;;4.27;3.97;;;28.30;94.40;;;;;;5032644;28;20402;-71
2022/08/13 09:39:02;;;;;;;5.10;4.43;;;27.90;95.20;;;;;;5032811;28;20216;-71
2022/08/13 09:41:36;;;;;;;4.23;3.93;;;28.10;94.80;;;;;;5033138;28;20432;-71
2022/08/13 09:44:04;;;;;;;7.33;4.07;;;28.10;94.50;;;;;;5032972;28;20182;-71
2022/08/13 09:46:31;;;;;;;5.63;4.90;;;28.00;94.90;;;;;;5032407;28;20881;-71
2022/08/13 09:48:58;;;;;;;3.97;3.67;;;27.60;95.30;;;;;;5032925;28;20429;-72
2022/08/13 09:51:24;;;;;;;6.50;5.90;;;27.60;95.70;;;;;;5032828;28;20439;-72
2022/08/13 09:53:52;;;;;;;4.10;3.80;;;27.60;95.60;;;;;;5032841;28;20417;-72
2022/08/13 09:56:18;;;;;;;4.33;3.93;;;27.60;95.30;;;;;;5032455;28;20410;-71
2022/08/13 09:58:50;;;;;;;4.57;4.17;;;27.50;95.30;;;;;;5032592;28;20953;-71
2022/08/13 10:01:19;;;;;;;3.90;3.60;;;27.40;95.20;;;;;;5032907;28;20186;-72
2022/08/13 10:03:48;;;;;;;3.80;3.47;;;27.40;95.10;;;;;;5032313;28;20554;-71
2022/08/13 10:06:18;;;;;;;4.57;3.70;;;27.30;95.10;;;;;;5032246;28;20401;-71
2022/08/13 10:08:46;;;;;;;3.70;3.40;;;27.30;95.10;;;;;;5032694;28;20733;-71
2022/08/13 10:11:15;;;;;;;5.00;4.07;;;27.30;95.10;;;;;;5032623;28;20725;-71
2022/08/13 10:13:41;;;;;;;4.30;4.00;;;27.40;94.80;;;;;;5032477;28;20467;-69
2022/08/13 10:16:07;;;;;;;5.80;4.10;;;27.60;94.60;;;;;;5032119;28;20409;-70
2022/08/13 10:18:32;;;;;;;3.97;3.67;;;27.40;95.00;;;;;;5030727;28;20454;-71
2022/08/13 10:20:58;;;;;;;4.33;3.97;;;27.10;95.50;;;;;;5031980;28;20209;-70
2022/08/13 10:23:24;;;;;;;4.20;3.90;;;27.30;95.30;;;;;;5031762;28;20195;-71
2022/08/13 10:25:52;;;;;;;7.73;4.00;;;27.20;95.40;;;;;;5032068;28;20194;-70
2022/08/13 10:28:27;;;;;;;4.47;4.10;;;27.10;95.70;;;;;;5032240;28;20179;-71
2022/08/13 10:30:54;;;;;;;4.10;3.80;;;27.00;95.80;;;;;;5032042;28;20906;-70
2022/08/13 10:33:20;;;;;;;4.60;4.20;;;27.00;95.80;;;;;;5032312;28;20412;-71
2022/08/13 10:35:58;;;;;;;3.50;3.20;;;26.90;95.80;;;;;;5031771;28;20777;-71
2022/08/13 10:38:26;;;;;;;4.33;3.80;;;26.80;96.30;;;;;;5031766;28;20554;-71
2022/08/13 10:40:55;;;;;;;3.70;3.50;;;27.00;96.20;;;;;;5031835;28;20433;-71
2022/08/13 10:43:22;;;;;;;4.17;3.83;;;27.10;96.30;;;;;;5013825;28;20520;-72
2022/08/13 10:45:55;;;;;;;6.27;3.17;;;26.80;96.90;;;;;;5031371;28;20728;-71
2022/08/13 10:48:21;;;;;;;3.77;3.47;;;26.70;97.90;;;;;;5031667;28;20470;-72
2022/08/13 10:50:46;;;;;;;3.37;3.10;;;26.50;99.80;;;;;;5031812;28;20431;-71
2022/08/13 10:53:55;;;;;;;4.30;3.70;;;26.10;99.90;;;;;;5031776;28;20663;-74
2022/08/13 10:56:01;;;;;;;3.20;3.00;;;25.80;99.90;;;;;;5019409;28;20311;-72
2022/08/13 10:58:26;;;;;;;4.30;3.80;;;25.80;99.90;;;;;;5031749;28;20495;-72
2022/08/13 11:00:52;;;;;;;5.10;3.70;;;25.90;99.90;;;;;;5031734;28;20961;-72
2022/08/13 11:03:18;;;;;;;3.70;3.40;;;26.00;99.90;;;;;;5031368;28;20286;-72
2022/08/13 11:05:43;;;;;;;3.77;3.47;;;26.00;99.90;;;;;;5031263;28;20165;-72
2022/08/13 11:08:13;;;;;;;5.10;4.00;;;25.80;99.90;;;;;;5031713;28;20422;-72
2022/08/13 11:10:38;;;;;;;3.80;3.50;;;25.80;99.90;;;;;;5032619;28;20172;-72
2022/08/13 11:13:05;;;;;;;4.30;3.90;;;25.80;99.90;;;;;;5032225;28;20403;-71
2022/08/13 11:15:32;;;;;;;4.10;3.37;;;25.80;99.90;;;;;;5031332;28;20388;-71
2022/08/13 11:17:57;;;;;;;4.27;3.93;;;26.00;99.90;;;;;;5066920;22;20489;-67
2022/08/13 11:20:24;;;;;;;3.90;3.60;;;26.00;99.90;;;;;;5030802;28;20432;-67
2022/08/13 11:22:53;;;;;;;3.80;3.50;;;26.10;99.90;;;;;;5032025;28;20207;-67
2022/08/13 11:25:19;;;;;;;3.87;3.50;;;26.00;99.90;;;;;;5031871;28;20403;-66
2022/08/13 11:27:45;;;;;;;5.53;4.03;;;26.00;99.90;;;;;;5033776;28;20794;-67
2022/08/13 11:30:12;;;;;;;3.80;3.50;;;26.10;99.90;;;;;;5043219;28;20398;-67
2022/08/13 11:32:38;;;;;;;4.23;3.93;;;26.20;99.90;;;;;;5032024;28;20456;-67
2022/08/13 11:35:05;;;;;;;6.83;4.33;;;26.10;99.90;;;;;;5031562;28;20437;-66
2022/08/13 11:37:31;;;;;;;4.60;4.23;;;26.00;99.90;;;;;;5039563;28;20184;-68
2022/08/13 11:39:57;;;;;;;5.37;3.80;;;26.00;99.90;;;;;;5053355;28;20456;-66
2022/08/13 11:42:22;;;;;;;4.20;3.80;;;25.90;99.90;;;;;;5044101;28;21009;-67
2022/08/13 11:44:48;;;;;;;4.07;3.73;;;26.10;99.90;;;;;;5031767;28;20165;-67
2022/08/13 11:47:14;;;;;;;4.30;3.90;;;26.00;99.90;;;;;;5031961;28;20249;-67
2022/08/13 11:49:39;;;;;;;4.77;4.30;;;25.90;99.90;;;;;;5031703;28;20185;-66
2022/08/13 11:52:05;;;;;;;4.10;3.80;;;26.00;99.90;;;;;;5031702;28;20179;-68
2022/08/13 11:54:30;;;;;;;4.00;3.60;;;26.10;99.90;;;;;;5031668;28;20195;-66
2022/08/13 11:56:56;;;;;;;4.80;3.50;;;26.20;99.90;;;;;;5039618;28;20660;-67
2022/08/13 11:59:21;;;;;;;4.33;3.93;;;26.10;99.90;;;;;;5047390;28;20241;-67
2022/08/13 12:01:47;;;;;;;4.43;4.00;;;25.80;99.90;;;;;;5051706;28;20781;-68
2022/08/13 12:04:13;;;;;;;4.47;4.07;;;25.50;99.90;;;;;;5042393;28;20171;-68
2022/08/13 12:06:40;;;;;;;5.07;4.67;;;25.30;99.90;;;;;;5031315;28;20257;-67
2022/08/13 12:09:05;;;;;;;4.80;4.20;;;25.20;99.90;;;;;;5031646;28;20188;-67
2022/08/13 12:11:34;;;;;;;3.97;3.67;;;25.20;99.90;;;;;;5031767;28;20954;-66
2022/08/13 12:13:59;;;;;;;4.13;3.83;;;25.10;99.90;;;;;;5031741;28;20653;-66
2022/08/13 12:16:25;;;;;;;6.40;5.80;;;25.20;99.90;;;;;;5031368;28;20472;-67
2022/08/13 12:18:51;;;;;;;3.63;3.33;;;25.30;99.90;;;;;;5031601;28;20213;-67
2022/08/13 12:21:16;;;;;;;4.50;3.60;;;25.30;99.90;;;;;;5031155;28;20176;-67
2022/08/13 12:23:42;;;;;;;3.80;3.50;;;25.30;99.90;;;;;;5031651;28;20215;-67
2022/08/13 12:26:07;;;;;;;4.80;3.87;;;25.20;99.90;;;;;;5031354;28;20163;-68
2022/08/13 12:28:33;;;;;;;5.63;3.83;;;25.20;99.90;;;;;;5031495;28;20178;-68
2022/08/13 12:31:06;;;;;;;5.13;3.83;;;25.30;99.90;;;;;;5031338;28;20174;-68
2022/08/13 12:33:33;;;;;;;4.33;4.03;;;25.50;99.90;;;;;;5031829;28;20710;-67
2022/08/13 12:36:01;;;;;;;3.77;3.43;;;25.60;99.90;;;;;;5030992;28;20417;-67
2022/08/13 12:38:28;;;;;;;4.87;3.80;;;25.80;99.90;;;;;;5031561;28;20800;-67
2022/08/13 12:40:54;;;;;;;4.97;4.37;;;26.00;99.90;;;;;;5032234;28;20403;-68
2022/08/13 12:43:19;;;;;;;4.43;4.03;;;26.00;99.90;;;;;;5049574;28;20463;-67
2022/08/13 12:45:45;;;;;;;5.20;4.00;;;25.90;99.90;;;;;;5054855;28;20168;-67
2022/08/13 12:48:14;;;;;;;5.33;4.43;;;26.00;99.90;;;;;;5054783;28;20186;-67
2022/08/13 12:50:46;;;;;;;4.70;4.30;;;26.10;99.90;;;;;;5053650;28;20208;-68
2022/08/13 12:53:12;;;;;;;3.87;3.50;;;26.20;99.90;;;;;;5040298;28;20443;-67
2022/08/13 12:55:40;;;;;;;4.37;3.70;;;26.50;99.90;;;;;;5034693;28;20769;-68
2022/08/13 12:58:16;;;;;;;4.47;4.07;;;26.60;99.90;;;;;;5034687;28;20444;-67
2022/08/13 13:00:43;;;;;;;4.17;3.77;;;26.70;99.90;;;;;;5034895;28;20820;-67
2022/08/13 13:03:10;;;;;;;5.77;4.17;;;26.70;99.90;;;;;;5034442;28;20453;-68
2022/08/13 13:05:36;;;;;;;3.63;3.43;;;26.90;99.90;;;;;;5034529;28;20418;-68
2022/08/13 13:08:16;;;;;;;5.73;3.73;;;27.00;99.90;;;;;;5034771;28;20490;-67
2022/08/13 13:10:42;;;;;;;3.10;2.80;;;27.00;99.90;;;;;;5034842;28;20717;-67
2022/08/13 13:13:08;;;;;;;3.23;2.93;;;27.10;99.90;;;;;;5033272;28;20412;-67
2022/08/13 13:15:33;;;;;;;3.70;3.40;;;27.10;99.60;;;;;;5034327;28;20166;-68